Time;durP1;ratioP1;P1;durP2;ratioP2;P2;SDS_P1;SDS_P2;PMS_P1;PMS_P2;Temp;Humidity;BMP_temperature;BMP_pressure;BME280_temperature;BME280_humidity;BME280_pressure;Samples;Min_cycle;Max_cycle;Signal;HPM_P1;HPM_P2
2021/03/19 00:01:23;;;;;;;5.65;3.58;;;6.40;70.20;;;;;;2342851;54;21076;-64
2021/03/19 00:03:49;;;;;;;5.00;3.05;;;6.50;70.40;;;;;;2347971;53;20943;-64
2021/03/19 00:06:17;;;;;;;5.50;3.22;;;6.50;70.40;;;;;;2589570;52;20931;-64
2021/03/19 00:08:44;;;;;;;5.35;3.10;;;6.50;70.50;;;;;;2589596;52;21008;-64
2021/03/19 00:11:10;;;;;;;5.20;3.20;;;6.50;70.50;;;;;;2589816;52;20969;-65
2021/03/19 00:13:37;;;;;;;4.10;2.60;;;6.50;70.30;;;;;;2344582;54;20978;-64
2021/03/19 00:16:04;;;;;;;5.75;2.70;;;6.50;70.30;;;;;;2590246;53;20928;-64
2021/03/19 00:18:34;;;;;;;4.70;2.60;;;6.50;70.30;;;;;;2345693;53;20975;-64
2021/03/19 00:21:00;;;;;;;5.90;3.35;;;6.60;70.30;;;;;;2340224;53;21039;-64
2021/03/19 00:23:26;;;;;;;5.40;3.00;;;6.60;70.30;;;;;;2342023;54;20960;-64
2021/03/19 00:25:52;;;;;;;5.35;2.62;;;6.60;70.20;;;;;;2583550;52;20983;-64
2021/03/19 00:28:19;;;;;;;5.47;2.58;;;6.60;70.20;;;;;;2590842;53;20968;-64
2021/03/19 00:30:46;;;;;;;3.72;2.20;;;6.60;70.10;;;;;;2582902;52;20960;-64
2021/03/19 00:33:39;;;;;;;4.55;2.50;;;6.60;70.00;;;;;;2590895;53;21024;-64
2021/03/19 00:37:00;;;;;;;4.35;2.22;;;6.60;69.60;;;;;;2589537;53;20988;-64
2021/03/19 00:39:27;;;;;;;4.55;2.47;;;6.60;69.60;;;;;;2343935;54;21000;-64
2021/03/19 00:41:53;;;;;;;4.78;2.17;;;6.60;69.80;;;;;;2589064;52;21787;-64
2021/03/19 00:44:21;;;;;;;6.22;1.80;;;6.60;69.80;;;;;;2339191;53;20924;-64
2021/03/19 00:46:49;;;;;;;3.28;1.90;;;6.60;69.80;;;;;;2584073;53;20966;-65
2021/03/19 00:49:15;;;;;;;5.10;2.40;;;6.50;69.70;;;;;;2335440;53;21884;-64
2021/03/19 00:51:44;;;;;;;5.32;2.35;;;6.50;70.30;;;;;;2343828;54;20937;-64
2021/03/19 00:54:11;;;;;;;4.40;2.30;;;6.50;69.50;;;;;;2346713;54;20975;-64
2021/03/19 00:56:38;;;;;;;4.40;2.15;;;6.50;69.60;;;;;;2590031;53;20988;-64
2021/03/19 00:59:06;;;;;;;4.53;2.17;;;6.50;69.60;;;;;;2346416;54;20952;-64
2021/03/19 01:01:41;;;;;;;3.83;1.95;;;6.50;69.70;;;;;;2342810;53;20955;-65
2021/03/19 01:04:08;;;;;;;3.85;2.10;;;6.50;69.60;;;;;;2590172;52;20979;-64
2021/03/19 01:06:37;;;;;;;4.75;2.15;;;6.50;69.80;;;;;;2586999;52;20944;-64
2021/03/19 01:09:04;;;;;;;4.95;2.60;;;6.40;69.60;;;;;;2583401;53;20982;-64
2021/03/19 01:11:30;;;;;;;4.62;2.05;;;6.40;69.70;;;;;;2588989;53;20970;-64
2021/03/19 01:13:57;;;;;;;3.97;2.28;;;6.40;70.50;;;;;;2330841;53;21313;-64
2021/03/19 01:16:23;;;;;;;3.87;2.30;;;6.40;69.80;;;;;;2338419;54;21039;-64
2021/03/19 01:18:51;;;;;;;5.12;1.95;;;6.40;70.60;;;;;;2579725;52;20999;-64
2021/03/19 01:21:17;;;;;;;4.25;1.98;;;6.40;69.90;;;;;;2337246;53;20956;-64
2021/03/19 01:23:44;;;;;;;5.75;2.15;;;6.40;70.00;;;;;;2324914;54;21487;-64
2021/03/19 01:26:21;;;;;;;5.60;2.40;;;6.40;70.00;;;;;;2588460;52;21188;-64
2021/03/19 01:28:48;;;;;;;4.12;2.40;;;6.40;69.80;;;;;;2336693;53;20971;-64
2021/03/19 01:31:19;;;;;;;4.62;2.50;;;6.40;69.90;;;;;;2585638;52;21116;-65
2021/03/19 01:33:55;;;;;;;4.72;2.70;;;6.40;69.80;;;;;;2584417;52;21028;-64
2021/03/19 01:36:21;;;;;;;5.30;2.78;;;6.40;69.60;;;;;;2343137;54;20940;-64
2021/03/19 01:38:48;;;;;;;6.55;3.25;;;6.40;69.80;;;;;;2340814;53;20956;-64
2021/03/19 01:41:17;;;;;;;5.50;2.97;;;6.40;69.80;;;;;;2592117;52;20982;-64
2021/03/19 01:44:11;;;;;;;4.57;2.62;;;6.40;69.80;;;;;;2331847;54;21020;-64
2021/03/19 01:47:14;;;;;;;4.68;2.53;;;6.40;69.70;;;;;;2337545;54;20977;-64
2021/03/19 01:50:17;;;;;;;4.35;2.40;;;6.40;69.70;;;;;;2346441;53;21399;-64
2021/03/19 01:53:21;;;;;;;4.95;2.45;;;6.40;69.70;;;;;;2589753;52;21055;-64
2021/03/19 01:56:26;;;;;;;4.62;2.35;;;6.40;69.80;;;;;;2551707;53;20944;-65
2021/03/19 01:59:28;;;;;;;5.25;3.05;;;6.40;69.80;;;;;;2342557;53;21392;-64
2021/03/19 02:02:31;;;;;;;5.47;3.05;;;6.40;69.90;;;;;;2347578;53;20971;-64
2021/03/19 02:05:36;;;;;;;4.32;2.33;;;6.40;70.00;;;;;;2588395;52;21046;-65
2021/03/19 02:08:39;;;;;;;4.25;2.50;;;6.40;70.10;;;;;;2334625;53;21415;-65
2021/03/19 02:11:42;;;;;;;6.72;3.08;;;6.40;70.00;;;;;;2584403;52;21891;-64
2021/03/19 02:14:27;;;;;;;;;;;6.40;70.10;;;;;;2592956;53;21799;-64
2021/03/19 02:17:30;;;;;;;4.37;2.30;;;6.40;69.40;;;;;;2345996;53;20062;-64
2021/03/19 02:20:34;;;;;;;5.12;2.90;;;6.40;70.00;;;;;;2344012;54;21460;-64
2021/03/19 02:23:18;;;;;;;;;;;6.40;70.00;;;;;;2594117;52;20928;-65
2021/03/19 02:26:25;;;;;;;4.50;2.50;;;6.40;69.40;;;;;;2337101;54;20066;-64
2021/03/19 02:29:28;;;;;;;4.93;2.47;;;6.40;69.90;;;;;;2323874;54;21111;-64
2021/03/19 02:32:05;;;;;;;5.53;2.85;;;6.40;69.90;;;;;;2346865;54;20936;-65
2021/03/19 02:34:40;;;;;;;6.22;2.67;;;6.40;70.20;;;;;;2343045;54;20940;-64
2021/03/19 02:37:14;;;;;;;5.62;3.20;;;6.40;70.20;;;;;;2343776;53;20964;-64
2021/03/19 02:39:43;;;;;;;5.35;2.70;;;6.40;70.20;;;;;;2341412;53;21034;-64
2021/03/19 02:42:09;;;;;;;5.72;3.00;;;6.40;70.30;;;;;;2342640;53;21130;-64
2021/03/19 02:44:50;;;;;;;6.37;3.30;;;6.40;70.40;;;;;;2343783;54;21449;-64
2021/03/19 02:47:17;;;;;;;6.03;2.85;;;6.40;70.10;;;;;;2350707;53;20983;-64
2021/03/19 02:49:52;;;;;;;5.93;3.40;;;6.40;70.40;;;;;;2341728;53;21043;-64
2021/03/19 02:52:21;;;;;;;5.55;2.95;;;6.40;70.30;;;;;;2345005;53;22176;-64
2021/03/19 02:54:50;;;;;;;7.62;3.60;;;6.40;70.50;;;;;;2590175;52;20996;-64
2021/03/19 02:57:17;;;;;;;6.20;3.00;;;6.50;70.50;;;;;;2340530;54;21007;-64
2021/03/19 02:59:43;;;;;;;5.57;3.40;;;6.50;70.50;;;;;;2345945;53;21066;-64
2021/03/19 03:02:12;;;;;;;5.35;3.40;;;6.50;70.50;;;;;;2341371;53;21495;-64
2021/03/19 03:04:40;;;;;;;6.45;3.37;;;6.50;70.60;;;;;;2339930;53;21805;-64
2021/03/19 03:07:06;;;;;;;6.68;3.60;;;6.50;70.60;;;;;;2590510;53;21261;-64
2021/03/19 03:09:33;;;;;;;5.75;3.47;;;6.50;70.50;;;;;;2349381;53;20995;-64
2021/03/19 03:12:18;;;;;;;5.75;2.95;;;6.50;70.50;;;;;;2577048;52;20967;-64
2021/03/19 03:15:09;;;;;;;8.27;4.20;;;6.50;70.30;;;;;;2340827;53;20952;-65
2021/03/19 03:17:42;;;;;;;7.45;4.70;;;6.50;70.20;;;;;;2343319;54;20955;-64
2021/03/19 03:20:10;;;;;;;6.50;4.07;;;6.50;70.30;;;;;;2342471;53;20933;-64
2021/03/19 03:22:39;;;;;;;6.78;3.72;;;6.50;70.40;;;;;;2590401;53;20991;-64
2021/03/19 03:25:06;;;;;;;7.68;3.62;;;6.50;70.50;;;;;;2343114;53;20899;-64
2021/03/19 03:27:32;;;;;;;6.97;3.55;;;6.60;70.50;;;;;;2343793;53;20988;-64
2021/03/19 03:30:39;;;;;;;5.62;3.60;;;6.50;70.30;;;;;;2333776;54;21043;-65
2021/03/19 03:33:06;;;;;;;5.80;3.10;;;6.50;70.00;;;;;;2589739;52;21793;-64
2021/03/19 03:35:32;;;;;;;6.22;3.42;;;6.60;70.30;;;;;;2343256;54;20933;-64
2021/03/19 03:38:20;;;;;;;5.45;3.08;;;6.60;70.30;;;;;;2343956;54;21024;-64
2021/03/19 03:43:57;;;;;;;5.18;2.92;;;6.50;69.80;;;;;;2576309;53;21002;-65
2021/03/19 03:46:54;;;;;;;4.62;2.70;;;6.50;70.10;;;;;;2343968;54;20964;-64
2021/03/19 03:49:21;;;;;;;5.22;3.10;;;6.60;69.60;;;;;;2587921;52;21010;-64
2021/03/19 03:51:49;;;;;;;5.72;3.55;;;6.50;69.90;;;;;;2333152;53;20959;-64
2021/03/19 03:54:24;;;;;;;6.32;3.05;;;6.50;70.00;;;;;;2335071;53;20956;-64
2021/03/19 03:57:05;;;;;;;6.45;3.80;;;6.50;69.80;;;;;;2585722;52;21008;-64
2021/03/19 03:59:31;;;;;;;5.45;3.03;;;6.50;69.70;;;;;;2583445;52;21418;-65
2021/03/19 04:01:58;;;;;;;5.50;3.70;;;6.50;70.00;;;;;;2343919;53;20976;-64
2021/03/19 04:04:25;;;;;;;5.85;3.20;;;6.50;70.10;;;;;;2589527;52;21004;-64
2021/03/19 04:06:52;;;;;;;5.78;3.50;;;6.50;70.20;;;;;;2589526;52;21758;-64
2021/03/19 04:09:19;;;;;;;5.53;3.22;;;6.50;70.30;;;;;;2589739;52;20988;-64
2021/03/19 04:12:20;;;;;;;6.50;3.60;;;6.40;70.20;;;;;;2339280;53;21036;-64
2021/03/19 04:14:47;;;;;;;6.62;3.80;;;6.50;70.00;;;;;;2582136;52;20943;-64
2021/03/19 04:17:30;;;;;;;4.87;3.08;;;6.50;70.20;;;;;;2337591;53;21427;-64
2021/03/19 04:19:58;;;;;;;7.10;3.00;;;6.50;70.10;;;;;;2589642;52;21039;-64
2021/03/19 04:22:27;;;;;;;5.82;3.20;;;6.50;70.10;;;;;;2343738;54;20994;-64
2021/03/19 04:24:55;;;;;;;5.65;3.45;;;6.50;70.20;;;;;;2340928;54;20987;-64
2021/03/19 04:27:23;;;;;;;6.10;3.45;;;6.50;70.20;;;;;;2337291;54;21019;-64
2021/03/19 04:29:49;;;;;;;5.85;3.30;;;6.50;70.20;;;;;;2351404;53;20939;-64
2021/03/19 04:32:16;;;;;;;4.47;2.72;;;6.40;70.10;;;;;;2580345;52;20961;-67
2021/03/19 04:35:08;;;;;;;5.18;3.28;;;6.50;70.30;;;;;;2581607;52;20927;-64
2021/03/19 04:37:35;;;;;;;5.10;2.73;;;6.50;70.00;;;;;;2335179;54;21994;-64
2021/03/19 04:40:02;;;;;;;6.03;3.33;;;6.40;70.10;;;;;;2336245;53;20988;-64
2021/03/19 04:42:29;;;;;;;7.50;3.47;;;6.40;70.10;;;;;;2338068;54;20956;-64
2021/03/19 04:44:58;;;;;;;7.75;3.70;;;6.50;70.30;;;;;;2586022;52;20934;-64
2021/03/19 04:47:29;;;;;;;6.03;3.53;;;6.50;70.20;;;;;;2572632;52;20944;-64
2021/03/19 04:49:55;;;;;;;5.68;3.50;;;6.50;70.30;;;;;;2346817;53;21074;-64
2021/03/19 04:52:21;;;;;;;6.80;3.78;;;6.50;70.30;;;;;;2339430;53;21051;-64
2021/03/19 04:54:48;;;;;;;5.43;3.28;;;6.50;70.30;;;;;;2342901;54;20960;-64
2021/03/19 04:57:14;;;;;;;6.32;3.25;;;6.50;70.30;;;;;;2341672;53;21332;-64
2021/03/19 04:59:41;;;;;;;5.45;3.33;;;6.50;70.30;;;;;;2340097;53;20952;-64
2021/03/19 05:02:07;;;;;;;5.32;3.42;;;6.50;70.30;;;;;;2561839;53;20952;-64
2021/03/19 05:04:34;;;;;;;7.30;3.50;;;6.50;70.30;;;;;;2589642;52;20984;-65
2021/03/19 05:07:06;;;;;;;5.18;3.00;;;6.50;70.30;;;;;;2343056;53;20949;-64
2021/03/19 05:09:33;;;;;;;6.03;3.62;;;6.50;70.40;;;;;;2343606;54;20976;-64
2021/03/19 05:12:01;;;;;;;5.07;3.12;;;6.50;70.40;;;;;;2589837;52;21481;-65
2021/03/19 05:14:30;;;;;;;6.03;3.87;;;6.50;70.40;;;;;;2347586;54;20948;-64
2021/03/19 05:16:57;;;;;;;5.50;3.10;;;6.50;70.50;;;;;;2585014;53;21075;-64
2021/03/19 05:19:25;;;;;;;4.43;3.00;;;6.50;70.50;;;;;;2590775;52;20931;-64
2021/03/19 05:21:51;;;;;;;6.12;3.58;;;6.50;70.60;;;;;;2588170;52;21769;-64
2021/03/19 05:24:18;;;;;;;5.85;3.42;;;6.50;70.60;;;;;;2342151;53;20999;-64
2021/03/19 05:26:44;;;;;;;7.15;3.42;;;6.50;70.50;;;;;;2589728;52;21715;-64
2021/03/19 05:29:11;;;;;;;6.30;3.50;;;6.50;70.50;;;;;;2342902;54;21036;-64
2021/03/19 05:31:38;;;;;;;6.15;3.60;;;6.50;70.40;;;;;;2589463;52;21920;-64
2021/03/19 05:34:04;;;;;;;6.37;3.50;;;6.50;70.40;;;;;;2576821;52;20987;-65
2021/03/19 05:36:31;;;;;;;5.78;3.28;;;6.60;70.50;;;;;;2588273;53;20915;-64
2021/03/19 05:39:00;;;;;;;5.50;3.17;;;6.60;70.50;;;;;;2343202;54;20956;-64
2021/03/19 05:41:27;;;;;;;5.80;3.50;;;6.50;70.40;;;;;;2590459;52;20961;-64
2021/03/19 05:44:14;;;;;;;6.25;3.35;;;6.60;70.50;;;;;;2573503;53;20980;-64
2021/03/19 05:46:53;;;;;;;7.12;4.55;;;6.60;70.20;;;;;;2590756;52;20935;-64
2021/03/19 05:49:27;;;;;;;9.13;4.97;;;6.60;70.20;;;;;;2587605;52;20948;-64
2021/03/19 05:51:58;;;;;;;9.73;5.18;;;6.60;70.30;;;;;;2590135;52;21012;-64
2021/03/19 05:54:48;;;;;;;7.45;4.50;;;6.60;70.30;;;;;;2341635;53;20942;-64
2021/03/19 05:57:48;;;;;;;7.25;3.78;;;6.50;70.00;;;;;;2589636;52;21710;-64
2021/03/19 06:00:18;;;;;;;6.97;4.20;;;6.60;70.00;;;;;;2589624;52;21877;-65
2021/03/19 06:02:45;;;;;;;6.70;3.80;;;6.60;70.40;;;;;;2343860;53;20996;-64
2021/03/19 06:05:25;;;;;;;7.78;4.10;;;6.60;70.50;;;;;;2590277;52;21048;-64
2021/03/19 06:08:02;;;;;;;6.32;3.70;;;6.60;70.40;;;;;;2588788;53;20992;-64
2021/03/19 06:10:41;;;;;;;7.28;3.67;;;6.60;70.40;;;;;;2343255;54;21390;-64
2021/03/19 06:13:20;;;;;;;5.15;2.92;;;6.60;71.00;;;;;;2590145;52;21560;-64
2021/03/19 06:16:53;;;;;;;6.95;4.00;;;6.60;70.50;;;;;;2339901;53;21407;-64
2021/03/19 06:19:29;;;;;;;6.47;3.63;;;6.60;70.40;;;;;;2589289;53;21051;-64
2021/03/19 06:24:32;;;;;;;7.57;3.72;;;6.60;70.40;;;;;;2346703;53;21078;-64
2021/03/19 06:27:23;;;;;;;6.75;3.53;;;6.70;69.80;;;;;;2589764;52;20997;-65
2021/03/19 06:29:52;;;;;;;6.70;3.80;;;6.70;70.50;;;;;;2590180;52;20952;-64
2021/03/19 06:32:36;;;;;;;5.70;3.25;;;6.70;70.80;;;;;;2586683;53;21507;-65
2021/03/19 06:35:29;;;;;;;8.77;3.90;;;6.70;70.70;;;;;;2345628;53;21407;-64
2021/03/19 06:37:56;;;;;;;6.53;3.67;;;6.70;70.70;;;;;;2590376;52;20983;-64
2021/03/19 06:40:39;;;;;;;5.28;3.58;;;6.70;71.00;;;;;;2588261;52;20938;-64
2021/03/19 06:43:28;;;;;;;6.05;3.70;;;6.70;71.00;;;;;;2343140;54;20956;-64
2021/03/19 06:46:55;;;;;;;6.85;3.83;;;6.80;70.90;;;;;;2346789;53;20967;-64
2021/03/19 06:49:23;;;;;;;5.78;3.17;;;6.80;70.80;;;;;;2342608;53;21100;-65
2021/03/19 06:51:51;;;;;;;6.32;3.72;;;6.80;71.10;;;;;;2343135;53;20963;-64
2021/03/19 06:54:25;;;;;;;6.40;3.62;;;6.80;71.20;;;;;;2561702;53;20924;-64
2021/03/19 06:57:15;;;;;;;7.15;4.07;;;6.90;71.20;;;;;;2342908;54;20976;-64
2021/03/19 06:59:43;;;;;;;6.20;3.67;;;6.90;70.80;;;;;;2588928;52;20968;-64
2021/03/19 07:02:49;;;;;;;6.62;3.30;;;6.90;71.20;;;;;;2343018;54;21071;-64
2021/03/19 07:12:22;;;;;;;5.53;3.28;;;6.90;70.60;;;;;;2590178;52;21064;-64
2021/03/19 07:16:14;;;;;;;5.18;2.85;;;7.00;70.90;;;;;;2323895;54;20948;-67
2021/03/19 07:19:19;;;;;;;7.18;3.35;;;7.00;70.20;;;;;;2589246;53;21805;-64
2021/03/19 07:23:29;;;;;;;6.95;4.00;;;7.00;70.50;;;;;;2343147;54;20948;-64
2021/03/19 07:26:14;;;;;;;5.80;3.60;;;7.00;70.50;;;;;;2343228;54;21040;-64
2021/03/19 07:29:11;;;;;;;5.97;3.78;;;7.00;70.30;;;;;;2589536;53;20918;-64
2021/03/19 07:34:47;;;;;;;6.30;3.90;;;7.00;70.50;;;;;;2346208;53;20978;-64
2021/03/19 07:38:37;;;;;;;5.50;3.10;;;7.00;70.00;;;;;;2342338;54;21015;-64
2021/03/19 07:43:47;;;;;;;5.65;3.50;;;7.00;70.30;;;;;;2588511;52;20944;-65
2021/03/19 07:53:20;;;;;;;5.47;3.25;;;7.00;69.70;;;;;;2343529;54;20976;-64
2021/03/19 07:56:17;;;;;;;5.80;2.92;;;7.00;70.20;;;;;;2562794;53;20951;-64
2021/03/19 08:00:28;;;;;;;5.47;3.17;;;7.10;70.70;;;;;;2343092;53;20931;-64
2021/03/19 08:03:29;;;;;;;7.20;4.00;;;7.10;70.30;;;;;;2583041;52;20947;-64
2021/03/19 08:05:56;;;;;;;8.27;4.07;;;7.10;70.80;;;;;;2343011;54;21063;-64
2021/03/19 08:08:49;;;;;;;6.20;3.85;;;7.20;71.60;;;;;;2590009;52;20988;-65
2021/03/19 08:14:48;;;;;;;6.90;3.42;;;7.20;71.10;;;;;;2342855;54;20988;-64
2021/03/19 08:20:22;;;;;;;4.57;2.62;;;7.20;71.40;;;;;;2346404;53;20884;-64
2021/03/19 08:23:30;;;;;;;5.82;3.33;;;7.30;71.40;;;;;;2344104;54;21019;-64
2021/03/19 08:25:57;;;;;;;5.30;3.15;;;7.40;71.40;;;;;;2584468;52;21020;-65
2021/03/19 08:29:09;;;;;;;6.40;3.60;;;7.40;71.90;;;;;;2336554;54;20928;-65
2021/03/19 08:38:57;;;;;;;5.93;3.50;;;7.40;71.30;;;;;;2588324;52;20956;-64
2021/03/19 08:41:27;;;;;;;6.12;3.20;;;7.60;70.70;;;;;;2590405;52;21082;-64
2021/03/19 08:43:55;;;;;;;6.40;3.33;;;7.60;71.60;;;;;;2583047;52;20967;-64
2021/03/19 08:47:40;;;;;;;7.50;4.32;;;7.60;71.70;;;;;;2585744;52;20912;-65
2021/03/19 08:50:33;;;;;;;7.37;4.28;;;7.60;71.40;;;;;;2342505;54;21507;-64
2021/03/19 08:53:13;;;;;;;8.77;4.68;;;7.60;71.70;;;;;;2341524;53;21001;-64
2021/03/19 09:02:35;;;;;;;8.43;5.00;;;7.60;72.10;;;;;;2343663;53;21398;-65
2021/03/19 09:05:04;;;;;;;7.97;5.05;;;7.70;72.00;;;;;;2340132;54;20961;-65
2021/03/19 09:08:09;;;;;;;8.40;5.37;;;7.80;71.50;;;;;;2590342;53;20994;-65
2021/03/19 09:11:00;;;;;;;7.60;5.18;;;7.80;70.80;;;;;;2336308;54;21996;-64
2021/03/19 09:13:26;;;;;;;8.80;5.95;;;7.80;70.50;;;;;;2590618;52;20953;-64
2021/03/19 09:15:54;;;;;;;9.98;6.00;;;7.80;70.80;;;;;;2346204;53;20915;-65
2021/03/19 09:25:19;;;;;;;10.02;6.82;;;7.80;70.80;;;;;;2348922;53;21088;-64
2021/03/19 09:28:47;;;;;;;8.85;5.93;;;7.80;70.00;;;;;;2346568;53;20927;-64
2021/03/19 09:31:31;;;;;;;10.63;6.78;;;7.80;70.50;;;;;;2344930;53;20999;-64
2021/03/19 09:34:23;;;;;;;9.73;6.82;;;7.80;70.50;;;;;;2311753;54;20935;-64
2021/03/19 09:38:29;;;;;;;10.32;7.10;;;7.80;70.30;;;;;;2573743;52;21047;-65
2021/03/19 09:40:59;;;;;;;9.70;6.43;;;7.80;70.10;;;;;;2336924;53;21042;-64
2021/03/19 09:45:19;;;;;;;9.13;6.32;;;7.70;70.20;;;;;;2590263;52;20983;-64
2021/03/19 09:48:33;;;;;;;9.35;5.68;;;7.70;69.80;;;;;;2346116;53;20991;-64
2021/03/19 09:51:03;;;;;;;8.73;5.87;;;7.70;70.10;;;;;;2562390;53;21003;-65
2021/03/19 09:53:35;;;;;;;10.70;6.18;;;7.70;70.70;;;;;;2333668;54;21924;-64
2021/03/19 09:56:22;;;;;;;10.05;6.15;;;7.60;70.60;;;;;;2581387;52;22080;-65
2021/03/19 09:59:07;;;;;;;8.25;5.28;;;7.70;70.10;;;;;;2341292;54;21032;-64
2021/03/19 10:01:43;;;;;;;9.18;5.95;;;7.60;70.00;;;;;;2590206;52;21486;-64
2021/03/19 10:04:12;;;;;;;11.20;7.25;;;7.60;70.20;;;;;;2590191;53;21020;-64
2021/03/19 10:06:48;;;;;;;10.57;6.78;;;7.50;70.20;;;;;;2585938;53;21001;-64
2021/03/19 10:09:42;;;;;;;7.87;5.62;;;7.50;70.00;;;;;;2346385;53;21006;-64
2021/03/19 10:12:51;;;;;;;10.02;6.90;;;7.50;70.10;;;;;;2589700;53;20937;-65
2021/03/19 10:15:19;;;;;;;11.25;6.87;;;7.40;70.10;;;;;;2342184;53;21011;-65
2021/03/19 10:17:56;;;;;;;9.45;5.90;;;7.50;71.20;;;;;;2341227;53;20927;-65
2021/03/19 10:20:28;;;;;;;11.45;7.80;;;7.30;71.20;;;;;;2338988;53;21035;-64
2021/03/19 10:23:27;;;;;;;11.05;7.35;;;7.50;71.70;;;;;;2343190;53;20983;-65
2021/03/19 10:26:23;;;;;;;11.20;6.97;;;7.50;71.40;;;;;;2589934;52;21080;-64
2021/03/19 10:28:52;;;;;;;10.88;6.25;;;7.60;71.80;;;;;;2346998;53;20978;-64
2021/03/19 10:31:23;;;;;;;9.88;6.72;;;7.60;72.10;;;;;;2584604;52;20955;-64
2021/03/19 10:33:58;;;;;;;9.02;5.78;;;7.60;72.40;;;;;;2589828;52;21476;-65
2021/03/19 10:36:46;;;;;;;10.18;6.80;;;7.70;72.60;;;;;;2336664;53;21798;-64
2021/03/19 10:39:24;;;;;;;9.57;6.40;;;7.80;72.50;;;;;;2340634;53;20978;-64
2021/03/19 10:44:04;;;;;;;10.23;6.28;;;7.80;72.60;;;;;;2287864;53;2194200;-65
2021/03/19 10:46:55;;;;;;;7.57;4.78;;;7.80;71.80;;;;;;2343457;54;21726;-65
2021/03/19 10:49:50;;;;;;;6.57;4.43;;;7.90;72.00;;;;;;2338881;54;21092;-63
2021/03/19 10:52:30;;;;;;;8.02;4.53;;;7.90;72.20;;;;;;2590754;52;20963;-65
2021/03/19 10:55:00;;;;;;;7.45;5.43;;;8.00;72.60;;;;;;2341371;53;22005;-65
2021/03/19 10:58:04;;;;;;;7.40;5.28;;;8.00;73.80;;;;;;2343853;53;21048;-65
2021/03/19 11:00:35;;;;;;;6.85;4.45;;;8.20;74.20;;;;;;2345338;53;20999;-65
2021/03/19 11:03:03;;;;;;;6.12;4.00;;;8.30;74.80;;;;;;2337398;53;21028;-65
2021/03/19 11:05:29;;;;;;;7.25;4.78;;;8.40;75.00;;;;;;2343968;53;20950;-64
2021/03/19 11:07:55;;;;;;;7.50;4.25;;;8.50;75.10;;;;;;2343700;53;20939;-64
2021/03/19 11:11:26;;;;;;;7.68;4.65;;;8.60;75.50;;;;;;2343272;54;21311;-64
2021/03/19 11:14:03;;;;;;;6.55;4.18;;;8.70;76.30;;;;;;2351357;53;20943;-65
2021/03/19 11:16:33;;;;;;;7.50;4.60;;;9.00;77.70;;;;;;2341293;53;21087;-64
2021/03/19 11:19:05;;;;;;;6.93;3.97;;;9.20;78.10;;;;;;2345812;53;21532;-65
2021/03/19 11:21:48;;;;;;;5.40;3.47;;;9.40;77.30;;;;;;2346019;53;20999;-64
2021/03/19 11:24:26;;;;;;;7.55;3.53;;;9.60;76.10;;;;;;2349305;54;20975;-64
2021/03/19 11:27:12;;;;;;;5.87;3.10;;;9.70;75.40;;;;;;2342337;53;20988;-65
2021/03/19 11:30:22;;;;;;;4.43;2.87;;;9.80;74.40;;;;;;2344331;53;21353;-65
2021/03/19 11:32:58;;;;;;;4.47;2.92;;;9.80;73.70;;;;;;2350960;53;21512;-65
2021/03/19 11:35:24;;;;;;;4.53;3.05;;;10.10;74.70;;;;;;2580934;53;21398;-64
2021/03/19 11:37:51;;;;;;;6.00;4.00;;;10.20;75.90;;;;;;2332032;53;20940;-65
2021/03/19 11:40:42;;;;;;;7.12;4.62;;;10.40;76.10;;;;;;2589672;52;21499;-65
2021/03/19 11:43:09;;;;;;;7.30;4.97;;;10.60;74.40;;;;;;2583278;52;21473;-65
2021/03/19 11:45:41;;;;;;;7.53;5.47;;;10.70;74.80;;;;;;2340249;54;21000;-65
2021/03/19 11:48:20;;;;;;;9.48;5.95;;;10.80;73.80;;;;;;2585253;52;20972;-65
2021/03/19 11:51:09;;;;;;;9.18;6.15;;;10.90;74.10;;;;;;2555826;53;20959;-65
2021/03/19 11:53:37;;;;;;;7.78;5.32;;;11.00;73.40;;;;;;2344555;53;20976;-65
2021/03/19 11:56:07;;;;;;;8.90;5.30;;;11.10;74.00;;;;;;2349639;53;21001;-65
2021/03/19 11:58:34;;;;;;;7.93;5.65;;;11.20;74.00;;;;;;2579783;52;21039;-65
2021/03/19 12:01:05;;;;;;;9.00;5.32;;;11.30;73.60;;;;;;2583441;52;21584;-65
2021/03/19 12:03:43;;;;;;;7.75;5.28;;;11.40;72.40;;;;;;2344744;54;21004;-65
2021/03/19 12:06:29;;;;;;;6.55;4.45;;;11.40;71.20;;;;;;2589965;52;20909;-65
2021/03/19 12:08:55;;;;;;;6.97;4.40;;;11.40;69.60;;;;;;2340744;54;21087;-65
2021/03/19 12:11:35;;;;;;;7.93;5.07;;;11.40;70.40;;;;;;2590777;53;20964;-65
2021/03/19 12:14:01;;;;;;;7.30;4.90;;;11.30;68.90;;;;;;2342238;53;20968;-64
2021/03/19 12:16:27;;;;;;;7.60;4.80;;;11.30;69.50;;;;;;2590663;52;20972;-65
2021/03/19 12:19:50;;;;;;;9.00;5.78;;;11.20;69.40;;;;;;2337687;54;20973;-65
2021/03/19 12:22:17;;;;;;;8.80;6.20;;;11.20;68.20;;;;;;2583897;52;20992;-65
2021/03/19 12:24:44;;;;;;;9.63;6.28;;;11.10;68.60;;;;;;2324112;55;20977;-65
2021/03/19 12:27:12;;;;;;;9.45;6.80;;;11.00;68.00;;;;;;2588499;52;20903;-65
2021/03/19 12:29:39;;;;;;;9.55;6.50;;;10.90;67.80;;;;;;2343447;53;21591;-65
2021/03/19 12:32:06;;;;;;;11.10;7.30;;;10.90;68.10;;;;;;2586364;52;21402;-65
2021/03/19 12:34:32;;;;;;;10.77;7.30;;;10.80;68.20;;;;;;2585418;52;21015;-65
2021/03/19 12:36:58;;;;;;;11.05;7.18;;;10.60;68.10;;;;;;2351243;53;20981;-66
2021/03/19 12:39:29;;;;;;;10.55;7.10;;;10.60;68.40;;;;;;2582927;52;20916;-65
2021/03/19 12:41:56;;;;;;;10.35;7.40;;;10.60;68.80;;;;;;2587997;52;20977;-63
2021/03/19 12:44:23;;;;;;;10.73;7.20;;;10.50;68.80;;;;;;2586271;53;20940;-66
2021/03/19 12:47:32;;;;;;;10.85;7.10;;;10.50;69.60;;;;;;2339081;54;21020;-66
2021/03/19 12:49:58;;;;;;;9.82;6.28;;;10.50;68.90;;;;;;2343970;54;21012;-67
2021/03/19 12:52:26;;;;;;;9.75;6.57;;;10.50;69.80;;;;;;2589273;52;21516;-65
2021/03/19 12:54:53;;;;;;;12.15;7.30;;;10.60;70.80;;;;;;2583340;52;20940;-66
2021/03/19 12:57:19;;;;;;;9.77;6.78;;;10.60;71.40;;;;;;2587977;52;20949;-66
2021/03/19 12:59:57;;;;;;;10.23;6.07;;;10.70;71.70;;;;;;2343740;53;20928;-66
2021/03/19 13:03:05;;;;;;;9.00;6.47;;;10.80;71.60;;;;;;2581715;52;20976;-66
2021/03/19 13:05:32;;;;;;;8.55;5.68;;;10.90;70.00;;;;;;2582710;52;20988;-66
2021/03/19 13:07:58;;;;;;;10.32;5.95;;;11.00;70.80;;;;;;2343292;54;21540;-66
2021/03/19 13:10:26;;;;;;;8.30;5.47;;;11.00;70.30;;;;;;2589239;52;20986;-66
2021/03/19 13:12:53;;;;;;;7.03;4.87;;;11.00;70.00;;;;;;2575897;52;20980;-66
2021/03/19 13:15:56;;;;;;;8.55;5.47;;;11.00;69.50;;;;;;2584242;52;20968;-66
2021/03/19 13:18:22;;;;;;;6.28;4.40;;;11.00;68.20;;;;;;2587157;52;21015;-66
2021/03/19 13:20:50;;;;;;;6.85;4.50;;;10.90;68.60;;;;;;2343747;53;21952;-66
2021/03/19 13:23:49;;;;;;;7.30;5.00;;;10.90;68.20;;;;;;2589862;52;21488;-66
2021/03/19 13:26:16;;;;;;;5.93;4.12;;;10.80;67.30;;;;;;2324232;55;21036;-66
2021/03/19 13:28:43;;;;;;;6.45;4.30;;;10.80;68.20;;;;;;2578879;52;21442;-66
2021/03/19 13:31:16;;;;;;;6.90;4.53;;;10.70;68.20;;;;;;2339407;54;21031;-66
2021/03/19 13:33:42;;;;;;;6.75;4.45;;;10.60;68.10;;;;;;2337528;54;20936;-66
2021/03/19 13:36:10;;;;;;;5.85;4.20;;;10.60;68.70;;;;;;2346070;53;20975;-66
2021/03/19 13:38:36;;;;;;;5.85;4.05;;;10.60;68.70;;;;;;2591002;52;21086;-67
2021/03/19 13:41:05;;;;;;;6.22;4.28;;;10.60;69.00;;;;;;2336757;53;21330;-66
2021/03/19 13:43:37;;;;;;;6.85;4.47;;;10.60;69.10;;;;;;2589817;53;20960;-66
2021/03/19 13:46:06;;;;;;;6.10;4.00;;;10.60;69.30;;;;;;2589233;52;20980;-66
2021/03/19 13:48:33;;;;;;;6.35;4.18;;;10.60;69.50;;;;;;2588887;52;21470;-66
2021/03/19 13:51:01;;;;;;;6.05;4.22;;;10.60;69.50;;;;;;2340558;53;21410;-66
2021/03/19 13:53:28;;;;;;;7.05;5.00;;;10.60;69.50;;;;;;2588842;53;20919;-66
2021/03/19 13:55:57;;;;;;;7.12;4.97;;;10.60;69.60;;;;;;2589168;52;21944;-66
2021/03/19 13:58:25;;;;;;;7.75;5.35;;;10.60;69.70;;;;;;2344992;54;21016;-66
2021/03/19 14:00:52;;;;;;;7.78;5.65;;;10.70;70.40;;;;;;2344652;57;21087;-67
2021/03/19 14:03:18;;;;;;;6.95;4.87;;;10.60;70.30;;;;;;2592240;53;21604;-66
2021/03/19 14:05:46;;;;;;;7.43;5.30;;;10.80;70.00;;;;;;2579243;52;20939;-67
2021/03/19 14:08:16;;;;;;;8.25;5.28;;;10.80;69.50;;;;;;2588117;53;21033;-66
2021/03/19 14:10:45;;;;;;;8.05;5.30;;;10.70;69.00;;;;;;2588414;52;20947;-66
2021/03/19 14:13:11;;;;;;;8.57;6.28;;;10.70;68.90;;;;;;2583550;53;21063;-66
2021/03/19 14:15:38;;;;;;;8.45;6.07;;;10.70;68.50;;;;;;2584066;52;20978;-66
2021/03/19 14:21:32;;;;;;;8.15;5.45;;;10.50;67.00;;;;;;2337220;54;20923;-66
2021/03/19 14:23:58;;;;;;;8.77;5.95;;;10.50;68.00;;;;;;2352356;53;21032;-66
2021/03/19 14:26:26;;;;;;;8.85;5.40;;;10.40;68.10;;;;;;2336559;53;21720;-66
2021/03/19 14:28:52;;;;;;;7.43;4.85;;;10.40;68.40;;;;;;2590316;52;20956;-66
2021/03/19 14:31:24;;;;;;;8.10;5.10;;;10.30;68.50;;;;;;2343471;54;21536;-66
2021/03/19 14:33:51;;;;;;;6.65;4.43;;;10.30;68.20;;;;;;2585429;52;20931;-66
2021/03/19 14:36:18;;;;;;;6.90;4.68;;;10.20;68.40;;;;;;2589594;52;21016;-65
2021/03/19 14:38:44;;;;;;;6.32;4.15;;;10.20;68.50;;;;;;2348036;54;21380;-66
2021/03/19 14:41:15;;;;;;;6.68;4.62;;;10.20;68.70;;;;;;2588619;52;20995;-66
2021/03/19 14:43:41;;;;;;;6.45;4.00;;;10.20;68.80;;;;;;2590607;52;22050;-66
2021/03/19 14:46:08;;;;;;;6.72;4.03;;;10.20;68.60;;;;;;2342561;54;20968;-66
2021/03/19 14:48:38;;;;;;;7.57;4.37;;;10.10;68.50;;;;;;2591038;52;20919;-66
2021/03/19 14:51:07;;;;;;;6.05;4.37;;;10.20;68.90;;;;;;2342953;53;21051;-66